首页
METAR-TAF:

METAR-TAF

机场 :

傑克遜維爾, 北卡罗来纳州, 美国

纬度: 34-42-21N, 经度: 077-26-27W, 海拔: 7米

当前天气观测

该预报发布于26分钟前的01:34 UTC
风速7节,风向东转东北
温度 17°C
湿度 94%
气压 1017 hPa
能見度: 16.1公里
多云层高于10000英尺

METAR: KNCA 070134Z 07007KT 10SM BKN100 17/16 A3002 RMK AO2 RAE31 TSE28 P0007 T01720156

时间: 22:00 (02:00 UTC)

预报

预报有效从06日的 21点(UTC)到 07日的 21点(UTC)
风速9节,风向南转西南
能见度10公里或以上
散云层高于2000英尺, 积雨云.
多云层高于7000英尺
雷暴, 小雨, 轻雾
从 07日的 0200点(UTC)
风速5节,风向西南
能見度: 4800
多云层高于2500英尺
多云层高于3000英尺
轻雾
从 07日的 1100点(UTC)
风速10节,风向西转西南
能見度: 2240
散云层高于8000英尺
多云层高于10000英尺

TAF: KNCA 0621/0721 20009KT 9999 -TSRA BR SCT020CB BKN070 QNH2994INS FM070200 23005KT 4800 BR BKN025 BKN030 QNH2995INS FM071100 24010KT 9999 SCT080 BKN100 QNH2988INS T15/0711Z T25/0718Z COR 2240

超过4000个机场的气象观测和天气预报(METAR&TAF报告)。

可查询的气象台以黄色和红色小点在地图上表示。

将鼠标移到小点上方,可查看气象台名称。

然后点击查看天气观测和预报。

如需切换地图:点击带黑十字的绿色按钮放大地图;点击带横线的绿色按钮缩小地图;或者点击绿色箭头查看邻近地区的地图。


METAR-TAF: